sensor_id;sensor_type;location;lat;lon;timestamp;pressure;altitude;pressure_sealevel;temperature;humidity
62980;BME280;49075;53.988;27.678;2023-03-22T00:04:12;985.3;;;4.1;66.8
62980;BME280;49075;53.988;27.678;2023-03-22T00:08:40;985.3;;;4.1;66.8
62980;BME280;49075;53.988;27.678;2023-03-22T00:13:40;985.3;;;4.1;66.8
62980;BME280;49075;53.988;27.678;2023-03-22T00:18:40;985.3;;;4.2;66.8
62980;BME280;49075;53.988;27.678;2023-03-22T00:23:40;985.4;;;4.2;66.9
62980;BME280;49075;53.988;27.678;2023-03-22T00:28:40;985.4;;;4.2;66.9
62980;BME280;49075;53.988;27.678;2023-03-22T00:34:14;985.4;;;4.1;67.1
62980;BME280;49075;53.988;27.678;2023-03-22T00:38:54;985.4;;;4.1;67.3
62980;BME280;49075;53.988;27.678;2023-03-22T00:43:40;985.4;;;4.1;67.4
62980;BME280;49075;53.988;27.678;2023-03-22T00:48:50;985.4;;;4.1;67.6
62980;BME280;49075;53.988;27.678;2023-03-22T00:53:58;985.4;;;4;67.5
62980;BME280;49075;53.988;27.678;2023-03-22T00:58:46;985.4;;;4;67.8
62980;BME280;49075;53.988;27.678;2023-03-22T01:03:40;985.4;;;4.1;67.7
62980;BME280;49075;53.988;27.678;2023-03-22T01:08:50;985.5;;;4;68
62980;BME280;49075;53.988;27.678;2023-03-22T01:13:56;985.5;;;4.1;67.8
62980;BME280;49075;53.988;27.678;2023-03-22T01:18:40;985.6;;;4;68.1
62980;BME280;49075;53.988;27.678;2023-03-22T01:23:40;985.5;;;4.1;68.1
62980;BME280;49075;53.988;27.678;2023-03-22T01:29:04;985.5;;;4;68.8
62980;BME280;49075;53.988;27.678;2023-03-22T01:33:50;985.5;;;4;68.5
62980;BME280;49075;53.988;27.678;2023-03-22T01:38:40;985.5;;;4;69.1
62980;BME280;49075;53.988;27.678;2023-03-22T01:43:40;985.5;;;4;69.2
62980;BME280;49075;53.988;27.678;2023-03-22T01:48:56;985.5;;;4;69.6
62980;BME280;49075;53.988;27.678;2023-03-22T01:54:11;985.5;;;4;69.9
62980;BME280;49075;53.988;27.678;2023-03-22T01:58:40;985.5;;;4;69.8
62980;BME280;49075;53.988;27.678;2023-03-22T02:04:07;985.5;;;4;70.3
62980;BME280;49075;53.988;27.678;2023-03-22T02:08:40;985.5;;;4;70
62980;BME280;49075;53.988;27.678;2023-03-22T02:14:30;985.5;;;3.9;70.6
62980;BME280;49075;53.988;27.678;2023-03-22T02:18:44;985.5;;;4;70.2
62980;BME280;49075;53.988;27.678;2023-03-22T02:23:57;985.5;;;3.9;70.8
62980;BME280;49075;53.988;27.678;2023-03-22T02:28:41;985.5;;;4;70.6
62980;BME280;49075;53.988;27.678;2023-03-22T02:39:15;985.5;;;3.9;71
62980;BME280;49075;53.988;27.678;2023-03-22T02:44:07;985.5;;;3.9;71
62980;BME280;49075;53.988;27.678;2023-03-22T02:48:41;985.5;;;3.9;71.4
62980;BME280;49075;53.988;27.678;2023-03-22T02:53:41;985.5;;;3.8;71
62980;BME280;49075;53.988;27.678;2023-03-22T02:59:18;985.5;;;3.8;71.4
62980;BME280;49075;53.988;27.678;2023-03-22T03:03:56;985.5;;;3.8;71
62980;BME280;49075;53.988;27.678;2023-03-22T03:08:40;985.6;;;3.7;71.7
62980;BME280;49075;53.988;27.678;2023-03-22T03:13:50;985.6;;;3.7;71.4
62980;BME280;49075;53.988;27.678;2023-03-22T03:19:24;985.7;;;3.7;72
62980;BME280;49075;53.988;27.678;2023-03-22T03:23:43;985.7;;;3.7;71.7
62980;BME280;49075;53.988;27.678;2023-03-22T03:28:50;985.7;;;3.6;72.2
62980;BME280;49075;53.988;27.678;2023-03-22T03:34:12;985.7;;;3.6;72
62980;BME280;49075;53.988;27.678;2023-03-22T03:38:41;985.7;;;3.5;72.5
62980;BME280;49075;53.988;27.678;2023-03-22T03:43:40;985.8;;;3.6;72.1
62980;BME280;49075;53.988;27.678;2023-03-22T03:48:40;985.8;;;3.5;72.8
62980;BME280;49075;53.988;27.678;2023-03-22T03:53:40;985.8;;;3.5;72.5
62980;BME280;49075;53.988;27.678;2023-03-22T03:59:22;985.8;;;3.6;72.6
62980;BME280;49075;53.988;27.678;2023-03-22T04:03:56;985.8;;;3.6;72.7
62980;BME280;49075;53.988;27.678;2023-03-22T04:09:06;985.8;;;3.6;72.5
62980;BME280;49075;53.988;27.678;2023-03-22T04:14:00;985.8;;;3.6;72.6
62980;BME280;49075;53.988;27.678;2023-03-22T04:18:40;985.9;;;3.6;72.4
62980;BME280;49075;53.988;27.678;2023-03-22T04:24:30;985.9;;;3.6;72.6
62980;BME280;49075;53.988;27.678;2023-03-22T04:28:50;985.9;;;3.5;72.6
62980;BME280;49075;53.988;27.678;2023-03-22T04:33:56;985.9;;;3.4;73
62980;BME280;49075;53.988;27.678;2023-03-22T04:38:40;985.9;;;3.4;72.9
62980;BME280;49075;53.988;27.678;2023-03-22T04:43:40;985.9;;;3.4;73.5
62980;BME280;49075;53.988;27.678;2023-03-22T04:48:54;985.9;;;3.4;73.2
62980;BME280;49075;53.988;27.678;2023-03-22T04:53:48;985.9;;;3.3;73.8
62980;BME280;49075;53.988;27.678;2023-03-22T04:58:40;986;;;3.4;73.2
62980;BME280;49075;53.988;27.678;2023-03-22T05:03:46;986;;;3.4;73.5
62980;BME280;49075;53.988;27.678;2023-03-22T05:08:40;986;;;3.4;73.1
62980;BME280;49075;53.988;27.678;2023-03-22T05:13:40;986;;;3.4;73.3
62980;BME280;49075;53.988;27.678;2023-03-22T05:18:56;986.1;;;3.5;72.8
62980;BME280;49075;53.988;27.678;2023-03-22T05:24:12;986.1;;;3.5;72.7
62980;BME280;49075;53.988;27.678;2023-03-22T05:29:00;986.1;;;3.6;72.3
62980;BME280;49075;53.988;27.678;2023-03-22T05:33:56;986.1;;;3.6;72
62980;BME280;49075;53.988;27.678;2023-03-22T05:39:18;986.1;;;3.8;71.7
62980;BME280;49075;53.988;27.678;2023-03-22T05:43:54;986.1;;;3.9;71.4
62980;BME280;49075;53.988;27.678;2023-03-22T05:49:10;986.2;;;3.9;70.9
62980;BME280;49075;53.988;27.678;2023-03-22T05:53:46;986.3;;;4;70.6
62980;BME280;49075;53.988;27.678;2023-03-22T05:59:18;986.3;;;4;70.1
62980;BME280;49075;53.988;27.678;2023-03-22T06:03:54;986.3;;;4.1;69.8
62980;BME280;49075;53.988;27.678;2023-03-22T06:08:54;986.4;;;4.1;69.5
62980;BME280;49075;53.988;27.678;2023-03-22T06:14:20;986.5;;;4.1;69.4
62980;BME280;49075;53.988;27.678;2023-03-22T06:19:00;986.5;;;4.2;69.3
62980;BME280;49075;53.988;27.678;2023-03-22T06:23:56;986.6;;;4.2;69.2
62980;BME280;49075;53.988;27.678;2023-03-22T06:28:54;986.6;;;4.2;69.1
62980;BME280;49075;53.988;27.678;2023-03-22T06:33:38;986.6;;;4.3;69.1
62980;BME280;49075;53.988;27.678;2023-03-22T06:39:18;986.6;;;4.3;68.9
62980;BME280;49075;53.988;27.678;2023-03-22T06:43:44;986.7;;;4.3;68.9
62980;BME280;49075;53.988;27.678;2023-03-22T06:48:38;986.7;;;4.4;68.6
62980;BME280;49075;53.988;27.678;2023-03-22T06:53:52;986.7;;;4.4;68.3
62980;BME280;49075;53.988;27.678;2023-03-22T06:58:46;986.7;;;4.3;68
62980;BME280;49075;53.988;27.678;2023-03-22T07:03:38;986.7;;;4.4;67.9
62980;BME280;49075;53.988;27.678;2023-03-22T07:08:56;986.7;;;4.4;67.8
62980;BME280;49075;53.988;27.678;2023-03-22T07:13:54;986.7;;;4.5;67.6
62980;BME280;49075;53.988;27.678;2023-03-22T07:18:38;986.7;;;4.5;67.7
62980;BME280;49075;53.988;27.678;2023-03-22T07:23:46;986.7;;;4.6;67.6
62980;BME280;49075;53.988;27.678;2023-03-22T07:28:38;986.7;;;4.7;67.3
62980;BME280;49075;53.988;27.678;2023-03-22T07:33:44;986.6;;;4.9;66.8
62980;BME280;49075;53.988;27.678;2023-03-22T07:38:54;986.6;;;5;66.3
62980;BME280;49075;53.988;27.678;2023-03-22T07:43:54;986.6;;;5.2;65.8
62980;BME280;49075;53.988;27.678;2023-03-22T07:48:54;986.5;;;5.3;65.4
62980;BME280;49075;53.988;27.678;2023-03-22T07:54:08;986.5;;;5.3;65.2
62980;BME280;49075;53.988;27.678;2023-03-22T07:58:58;986.5;;;5.4;64.7
62980;BME280;49075;53.988;27.678;2023-03-22T08:03:54;986.5;;;5.6;63.6
62980;BME280;49075;53.988;27.678;2023-03-22T08:08:54;986.5;;;5.7;63.3
62980;BME280;49075;53.988;27.678;2023-03-22T08:13:48;986.5;;;5.8;62.7
62980;BME280;49075;53.988;27.678;2023-03-22T08:19:08;986.5;;;5.8;62.3
62980;BME280;49075;53.988;27.678;2023-03-22T08:23:56;986.5;;;6;61.6
62980;BME280;49075;53.988;27.678;2023-03-22T08:28:54;986.5;;;6;61.5
62980;BME280;49075;53.988;27.678;2023-03-22T08:33:40;986.5;;;5.8;60.5
62980;BME280;49075;53.988;27.678;2023-03-22T08:39:00;986.5;;;5.7;61.1
62980;BME280;49075;53.988;27.678;2023-03-22T08:43:40;986.5;;;5.5;60.7
62980;BME280;49075;53.988;27.678;2023-03-22T08:49:00;986.5;;;5.3;61.1
62980;BME280;49075;53.988;27.678;2023-03-22T08:53:40;986.4;;;5.2;60.7
62980;BME280;49075;53.988;27.678;2023-03-22T08:59:10;986.4;;;5.2;61.3
62980;BME280;49075;53.988;27.678;2023-03-22T09:03:48;986.3;;;5.1;61
62980;BME280;49075;53.988;27.678;2023-03-22T09:08:54;986.3;;;5;62.1
62980;BME280;49075;53.988;27.678;2023-03-22T09:13:40;986.3;;;5.2;62.2
62980;BME280;49075;53.988;27.678;2023-03-22T09:18:40;986.2;;;5.4;62.2
62980;BME280;49075;53.988;27.678;2023-03-22T09:23:54;986.2;;;5.6;61.8
62980;BME280;49075;53.988;27.678;2023-03-22T09:28:48;986.2;;;5.4;62.4
62980;BME280;49075;53.988;27.678;2023-03-22T09:33:40;986.2;;;5.1;62.3
62980;BME280;49075;53.988;27.678;2023-03-22T09:38:40;986.1;;;5.4;61.7
62980;BME280;49075;53.988;27.678;2023-03-22T09:43:41;986.1;;;5.3;60.6
62980;BME280;49075;53.988;27.678;2023-03-22T09:49:11;986.1;;;5.6;60.2
62980;BME280;49075;53.988;27.678;2023-03-22T09:53:40;986.1;;;5.4;59.9
62980;BME280;49075;53.988;27.678;2023-03-22T09:58:41;986;;;5.9;59.2
62980;BME280;49075;53.988;27.678;2023-03-22T10:03:52;986;;;6.7;56.5
62980;BME280;49075;53.988;27.678;2023-03-22T10:08:58;986;;;6.8;57.4
62980;BME280;49075;53.988;27.678;2023-03-22T10:13:57;986.1;;;6.2;57.8
62980;BME280;49075;53.988;27.678;2023-03-22T10:18:40;986.1;;;6.4;58.2
62980;BME280;49075;53.988;27.678;2023-03-22T10:23:54;986;;;7.8;54.8
62980;BME280;49075;53.988;27.678;2023-03-22T10:28:48;986.1;;;7.3;54.5
62980;BME280;49075;53.988;27.678;2023-03-22T10:33:41;986;;;7.2;55
62980;BME280;49075;53.988;27.678;2023-03-22T10:38:53;985.9;;;7.1;54.8
62980;BME280;49075;53.988;27.678;2023-03-22T10:43:40;985.9;;;7.3;54.3
62980;BME280;49075;53.988;27.678;2023-03-22T10:49:09;985.8;;;7.3;53.7
62980;BME280;49075;53.988;27.678;2023-03-22T10:53:41;985.8;;;7.1;54.4
62980;BME280;49075;53.988;27.678;2023-03-22T10:58:40;985.8;;;7.5;52.9
62980;BME280;49075;53.988;27.678;2023-03-22T11:03:41;985.8;;;7.7;52.8
62980;BME280;49075;53.988;27.678;2023-03-22T11:08:48;985.7;;;8.6;50.2
62980;BME280;49075;53.988;27.678;2023-03-22T11:14:00;985.6;;;10.8;47.3
62980;BME280;49075;53.988;27.678;2023-03-22T11:18:38;985.6;;;10.7;46.2
62980;BME280;49075;53.988;27.678;2023-03-22T11:23:40;985.5;;;11.5;46.3
62980;BME280;49075;53.988;27.678;2023-03-22T11:28:40;985.5;;;12.4;42.7
62980;BME280;49075;53.988;27.678;2023-03-22T11:33:53;985.4;;;13.2;41.6
62980;BME280;49075;53.988;27.678;2023-03-22T11:38:39;985.3;;;12;40.4
62980;BME280;49075;53.988;27.678;2023-03-22T11:43:45;985.3;;;11.8;41.9
62980;BME280;49075;53.988;27.678;2023-03-22T11:48:38;985.2;;;11.5;42.5
62980;BME280;49075;53.988;27.678;2023-03-22T11:53:54;985.2;;;11.7;42
62980;BME280;49075;53.988;27.678;2023-03-22T11:58:55;985.2;;;11.3;42.9
62980;BME280;49075;53.988;27.678;2023-03-22T12:03:54;985.1;;;10.5;43.1
62980;BME280;49075;53.988;27.678;2023-03-22T12:09:05;985.1;;;10.4;44
62980;BME280;49075;53.988;27.678;2023-03-22T12:14:14;985.1;;;9.7;45.3
62980;BME280;49075;53.988;27.678;2023-03-22T12:18:47;985;;;9.5;45.8
62980;BME280;49075;53.988;27.678;2023-03-22T12:23:46;985;;;9.1;46.7
62980;BME280;49075;53.988;27.678;2023-03-22T12:28:39;985;;;8.1;48.6
62980;BME280;49075;53.988;27.678;2023-03-22T12:33:47;984.9;;;8;48.9
62980;BME280;49075;53.988;27.678;2023-03-22T12:38:55;984.8;;;7.8;49.5
62980;BME280;49075;53.988;27.678;2023-03-22T12:43:41;984.8;;;7.8;49.4
62980;BME280;49075;53.988;27.678;2023-03-22T12:48:44;984.7;;;7.5;50.2
62980;BME280;49075;53.988;27.678;2023-03-22T12:54:08;984.6;;;7.4;50.6
62980;BME280;49075;53.988;27.678;2023-03-22T12:58:38;984.5;;;7.7;50.2
62980;BME280;49075;53.988;27.678;2023-03-22T13:04:01;984.5;;;7.9;49.9
62980;BME280;49075;53.988;27.678;2023-03-22T13:09:12;984.5;;;7.8;50.3
62980;BME280;49075;53.988;27.678;2023-03-22T13:13:54;984.4;;;8.1;49.6
62980;BME280;49075;53.988;27.678;2023-03-22T13:19:00;984.3;;;8.7;49
62980;BME280;49075;53.988;27.678;2023-03-22T13:24:20;984.3;;;8.9;47.4
62980;BME280;49075;53.988;27.678;2023-03-22T13:29:32;984.3;;;8.7;48.4
62980;BME280;49075;53.988;27.678;2023-03-22T13:33:38;984.3;;;8.2;48.7
62980;BME280;49075;53.988;27.678;2023-03-22T13:39:07;984.3;;;8.4;48.8
62980;BME280;49075;53.988;27.678;2023-03-22T13:44:18;984.2;;;8.6;48.1
62980;BME280;49075;53.988;27.678;2023-03-22T13:48:53;984.2;;;8.4;47.5
62980;BME280;49075;53.988;27.678;2023-03-22T13:54:16;984.1;;;8.2;47.8
62980;BME280;49075;53.988;27.678;2023-03-22T13:58:48;984;;;8;49
62980;BME280;49075;53.988;27.678;2023-03-22T14:03:39;984;;;8;48.6
62980;BME280;49075;53.988;27.678;2023-03-22T14:08:51;983.9;;;8.1;48.7
62980;BME280;49075;53.988;27.678;2023-03-22T14:13:39;983.9;;;8.2;48.3
62980;BME280;49075;53.988;27.678;2023-03-22T14:18:39;983.9;;;8.4;48
62980;BME280;49075;53.988;27.678;2023-03-22T14:23:47;983.9;;;8.2;48.3
62980;BME280;49075;53.988;27.678;2023-03-22T14:28:38;983.9;;;8.3;47.9
62980;BME280;49075;53.988;27.678;2023-03-22T14:34:28;983.8;;;8.3;47.7
62980;BME280;49075;53.988;27.678;2023-03-22T14:38:39;983.8;;;8.3;47.9
62980;BME280;49075;53.988;27.678;2023-03-22T14:43:39;983.7;;;8.4;47.6
62980;BME280;49075;53.988;27.678;2023-03-22T14:48:46;983.6;;;8.4;47.4
62980;BME280;49075;53.988;27.678;2023-03-22T14:53:38;983.6;;;8.4;47.6
62980;BME280;49075;53.988;27.678;2023-03-22T14:59:01;983.6;;;8.2;47.9
62980;BME280;49075;53.988;27.678;2023-03-22T15:03:38;983.7;;;8.1;47.4
62980;BME280;49075;53.988;27.678;2023-03-22T15:08:55;983.7;;;8.2;47.5
62980;BME280;49075;53.988;27.678;2023-03-22T15:13:48;983.7;;;8.2;47.3
62980;BME280;49075;53.988;27.678;2023-03-22T15:19:04;983.7;;;8.2;47.6
62980;BME280;49075;53.988;27.678;2023-03-22T15:23:38;983.6;;;8.3;47.7
62980;BME280;49075;53.988;27.678;2023-03-22T15:28:42;983.6;;;8.4;47.6
62980;BME280;49075;53.988;27.678;2023-03-22T15:34:10;983.6;;;8.3;48.1
62980;BME280;49075;53.988;27.678;2023-03-22T15:38:46;983.7;;;8.2;48.5
62980;BME280;49075;53.988;27.678;2023-03-22T15:44:12;983.6;;;8;49.3
62980;BME280;49075;53.988;27.678;2023-03-22T15:48:40;983.5;;;7.9;49.8
62980;BME280;49075;53.988;27.678;2023-03-22T15:53:48;983.5;;;7.6;50.5
62980;BME280;49075;53.988;27.678;2023-03-22T15:58:38;983.5;;;7.7;50.5
62980;BME280;49075;53.988;27.678;2023-03-22T16:03:45;983.5;;;7.6;50.8
62980;BME280;49075;53.988;27.678;2023-03-22T16:08:38;983.5;;;7.5;51.2
62980;BME280;49075;53.988;27.678;2023-03-22T16:13:38;983.5;;;7.3;51.8
62980;BME280;49075;53.988;27.678;2023-03-22T16:18:48;983.5;;;7.3;52
62980;BME280;49075;53.988;27.678;2023-03-22T16:23:38;983.4;;;7.2;52.5
62980;BME280;49075;53.988;27.678;2023-03-22T16:28:46;983.4;;;7.1;52.6
62980;BME280;49075;53.988;27.678;2023-03-22T16:33:48;983.5;;;7;53.1
62980;BME280;49075;53.988;27.678;2023-03-22T16:38:54;983.4;;;7;53
62980;BME280;49075;53.988;27.678;2023-03-22T16:44:04;983.3;;;6.9;53.6
62980;BME280;49075;53.988;27.678;2023-03-22T16:48:40;983.3;;;6.9;53.4
62980;BME280;49075;53.988;27.678;2023-03-22T16:53:40;983.3;;;6.8;53.7
62980;BME280;49075;53.988;27.678;2023-03-22T16:58:48;983.3;;;6.7;54.2
62980;BME280;49075;53.988;27.678;2023-03-22T17:03:54;983.3;;;6.5;54.7
62980;BME280;49075;53.988;27.678;2023-03-22T17:08:40;983.4;;;6.5;54.7
62980;BME280;49075;53.988;27.678;2023-03-22T17:13:40;983.3;;;6.5;55.1
62980;BME280;49075;53.988;27.678;2023-03-22T17:19:24;983.3;;;6.4;55.4
62980;BME280;49075;53.988;27.678;2023-03-22T17:23:48;983.3;;;6.3;56
62980;BME280;49075;53.988;27.678;2023-03-22T17:29:24;983.2;;;6.3;56.2
62980;BME280;49075;53.988;27.678;2023-03-22T17:33:48;983.2;;;6.2;56.8
62980;BME280;49075;53.988;27.678;2023-03-22T17:39:10;983.3;;;6.3;56.6
62980;BME280;49075;53.988;27.678;2023-03-22T17:43:48;983.3;;;6.2;57.1
62980;BME280;49075;53.988;27.678;2023-03-22T17:48:48;983.3;;;6.3;57
62980;BME280;49075;53.988;27.678;2023-03-22T17:53:54;983.3;;;6.2;57.1
62980;BME280;49075;53.988;27.678;2023-03-22T17:59:20;983.3;;;6.2;57.3
62980;BME280;49075;53.988;27.678;2023-03-22T18:03:40;983.3;;;6.1;57.5
62980;BME280;49075;53.988;27.678;2023-03-22T18:08:48;983.3;;;6.1;57.5
62980;BME280;49075;53.988;27.678;2023-03-22T18:13:50;983.3;;;6;57.6
62980;BME280;49075;53.988;27.678;2023-03-22T18:18:54;983.3;;;5.9;58
62980;BME280;49075;53.988;27.678;2023-03-22T18:23:40;983.3;;;5.9;58.3
62980;BME280;49075;53.988;27.678;2023-03-22T18:28:56;983.2;;;5.9;58
62980;BME280;49075;53.988;27.678;2023-03-22T18:33:54;983.2;;;5.8;58.4
62980;BME280;49075;53.988;27.678;2023-03-22T18:38:50;983.1;;;5.7;58.8
62980;BME280;49075;53.988;27.678;2023-03-22T18:43:54;983.1;;;5.7;58.7
62980;BME280;49075;53.988;27.678;2023-03-22T18:49:04;983.1;;;5.6;59.2
62980;BME280;49075;53.988;27.678;2023-03-22T18:53:40;983;;;5.5;59.2
62980;BME280;49075;53.988;27.678;2023-03-22T18:58:48;983;;;5.5;59.5
62980;BME280;49075;53.988;27.678;2023-03-22T19:03:54;983;;;5.5;59.6
62980;BME280;49075;53.988;27.678;2023-03-22T19:08:52;983;;;5.4;59.7
62980;BME280;49075;53.988;27.678;2023-03-22T19:14:04;983;;;5.3;59.9
62980;BME280;49075;53.988;27.678;2023-03-22T19:18:54;983;;;5.2;60.6
62980;BME280;49075;53.988;27.678;2023-03-22T19:23:40;983;;;5.3;60.2
62980;BME280;49075;53.988;27.678;2023-03-22T19:29:08;983;;;5.2;60.7
62980;BME280;49075;53.988;27.678;2023-03-22T19:33:54;983;;;5.1;60.9
62980;BME280;49075;53.988;27.678;2023-03-22T19:39:06;983.1;;;5;61.3
62980;BME280;49075;53.988;27.678;2023-03-22T19:44:10;983.1;;;5;61.1
62980;BME280;49075;53.988;27.678;2023-03-22T19:48:40;983.1;;;4.9;61.7
62980;BME280;49075;53.988;27.678;2023-03-22T19:53:40;983;;;4.8;62.1
62980;BME280;49075;53.988;27.678;2023-03-22T19:58:54;983.1;;;4.8;62.1
62980;BME280;49075;53.988;27.678;2023-03-22T20:03:40;983;;;4.8;62.1
62980;BME280;49075;53.988;27.678;2023-03-22T20:08:56;983;;;4.8;62
62980;BME280;49075;53.988;27.678;2023-03-22T20:13:48;983;;;4.7;62.8
62980;BME280;49075;53.988;27.678;2023-03-22T20:19:10;983;;;4.7;62.4
62980;BME280;49075;53.988;27.678;2023-03-22T20:23:54;982.9;;;4.7;63
62980;BME280;49075;53.988;27.678;2023-03-22T20:28:40;982.9;;;4.7;62.8
62980;BME280;49075;53.988;27.678;2023-03-22T20:33:38;982.8;;;4.6;63.4
62980;BME280;49075;53.988;27.678;2023-03-22T20:38:54;982.8;;;4.6;63.4
62980;BME280;49075;53.988;27.678;2023-03-22T20:43:54;982.7;;;4.6;63.5
62980;BME280;49075;53.988;27.678;2023-03-22T20:48:38;982.7;;;4.7;63.3
62980;BME280;49075;53.988;27.678;2023-03-22T20:53:38;982.7;;;4.7;63.9
62980;BME280;49075;53.988;27.678;2023-03-22T20:58:54;982.7;;;4.8;63.5
62980;BME280;49075;53.988;27.678;2023-03-22T21:03:46;982.7;;;4.8;63.7
62980;BME280;49075;53.988;27.678;2023-03-22T21:08:38;982.7;;;4.9;63.4
62980;BME280;49075;53.988;27.678;2023-03-22T21:13:52;982.7;;;5;63.5
62980;BME280;49075;53.988;27.678;2023-03-22T21:19:02;982.7;;;5.1;63.4
62980;BME280;49075;53.988;27.678;2023-03-22T21:23:38;982.6;;;5.1;63.6
62980;BME280;49075;53.988;27.678;2023-03-22T21:28:38;982.6;;;5.1;63.7
62980;BME280;49075;53.988;27.678;2023-03-22T21:33:38;982.6;;;5.2;64
62980;BME280;49075;53.988;27.678;2023-03-22T21:38:40;982.6;;;5.4;63.4
62980;BME280;49075;53.988;27.678;2023-03-22T21:44:06;982.5;;;5.3;63.9
62980;BME280;49075;53.988;27.678;2023-03-22T21:48:56;982.5;;;5.5;63.3
62980;BME280;49075;53.988;27.678;2023-03-22T21:53:40;982.5;;;5.4;63.8
62980;BME280;49075;53.988;27.678;2023-03-22T21:58:40;982.5;;;5.5;63.6
62980;BME280;49075;53.988;27.678;2023-03-22T22:03:54;982.5;;;5.6;63.6
62980;BME280;49075;53.988;27.678;2023-03-22T22:08:48;982.5;;;5.5;63.7
62980;BME280;49075;53.988;27.678;2023-03-22T22:13:56;982.5;;;5.5;64.1
62980;BME280;49075;53.988;27.678;2023-03-22T22:18:40;982.4;;;5.5;64.3
62980;BME280;49075;53.988;27.678;2023-03-22T22:23:56;982.4;;;5.3;65
62980;BME280;49075;53.988;27.678;2023-03-22T22:28:54;982.4;;;5.4;64.9
62980;BME280;49075;53.988;27.678;2023-03-22T22:33:48;982.4;;;5.3;65.3
62980;BME280;49075;53.988;27.678;2023-03-22T22:39:30;982.4;;;5.4;65.2
62980;BME280;49075;53.988;27.678;2023-03-22T22:43:46;982.4;;;5.5;65.3
62980;BME280;49075;53.988;27.678;2023-03-22T22:49:10;982.4;;;5.4;65.4
62980;BME280;49075;53.988;27.678;2023-03-22T22:53:55;982.3;;;5.3;66.1
62980;BME280;49075;53.988;27.678;2023-03-22T22:58:41;982.3;;;5.3;66.2
62980;BME280;49075;53.988;27.678;2023-03-22T23:03:56;982.2;;;5.3;66.3
62980;BME280;49075;53.988;27.678;2023-03-22T23:08:49;982.1;;;5.4;66.1
62980;BME280;49075;53.988;27.678;2023-03-22T23:13:54;982.1;;;5.4;66.3
62980;BME280;49075;53.988;27.678;2023-03-22T23:18:54;982.1;;;5.4;66.2
62980;BME280;49075;53.988;27.678;2023-03-22T23:23:50;982.1;;;5.4;66.8
62980;BME280;49075;53.988;27.678;2023-03-22T23:29:10;982.1;;;5.4;66.7
62980;BME280;49075;53.988;27.678;2023-03-22T23:33:40;982.1;;;5.4;67.1
62980;BME280;49075;53.988;27.678;2023-03-22T23:38:49;982.1;;;5.4;67.5
62980;BME280;49075;53.988;27.678;2023-03-22T23:43:54;982.1;;;5.4;68
62980;BME280;49075;53.988;27.678;2023-03-22T23:49:06;982;;;5.5;67.5
62980;BME280;49075;53.988;27.678;2023-03-22T23:53:54;982.1;;;5.4;68.3
62980;BME280;49075;53.988;27.678;2023-03-22T23:58:49;982;;;5.3;68.7
